Impacts METAR Board
IDs:

KCRS - Corsicana Muni, TX, US

Updated at: 0600 UTC 19 Aug 2019
Potential Impact None Slight Moderate High
Time 18/18Z 18/19Z 18/20Z 18/21Z 18/22Z 18/23Z 19/00Z 19/01Z 19/02Z 19/03Z 19/04Z 19/05Z 19/06Z
Temp92 94 96 98 97 97 96 92 88 87 85 84 84
Dewpt72 71 71 71 70 69 68 69 70 71 72 72 73
Altim29.92 29.90 29.89 29.88 29.87 29.86 29.85 29.84 29.86 29.88 29.91 29.92 29.93
VIS10 10 10 10 10 10 10 10 10 10 10 10 10
CIG47 -- -- -- -- -- -- -- -- -- -- -- --
CoverBKNSCTSCTSCTFEWCLRCLRCLRCLRCLRCLRCLRCLR
FltCatVFRVFRVFRVFRVFRVFRVFRVFRVFRVFRVFRVFRVFR
WX--------------------------
WDir240160160170180130150170140130160160170
WSpd11 10 10 11 10 11 12 6 5 5 8 8 8
WGst-- -- 17 -- -- -- -- -- -- -- -- -- --
Raw hourly METARs
KCRS 181753Z AUTO 24011KT 10SM BKN047 33/22 A2992 RMK AO2 SLP126 T03330222 10344 20261 58003
KCRS 181853Z AUTO 16010KT 10SM SCT049 34/22 A2990 RMK AO2 SLP119 T03440217
KCRS 181953Z AUTO 16010G17KT 10SM SCT060 36/22 A2989 RMK AO2 SLP114 T03560217
KCRS 182053Z AUTO 17011KT 10SM SCT060 37/22 A2988 RMK AO2 SLP111 T03670217 56015
KCRS 182153Z AUTO 18010KT 10SM FEW060 36/21 A2987 RMK AO2 SLP108 T03610211
KCRS 182253Z AUTO 13011KT 10SM CLR 36/21 A2986 RMK AO2 SLP105 T03610206
KCRS 182353Z AUTO 15012KT 10SM CLR 36/20 A2985 RMK AO2 SLP100 T03560200 10372 20333 58010
KCRS 190053Z AUTO 17006KT 10SM CLR 33/21 A2984 RMK AO2 SLP100 T03330206
KCRS 190153Z AUTO 14005KT 10SM CLR 31/21 A2986 RMK AO2 SLP104 T03110211
KCRS 190253Z AUTO 13005KT 10SM CLR 31/22 A2988 RMK AO2 SLP112 T03060217 53011
KCRS 190353Z AUTO 16008KT 10SM CLR 29/22 A2991 RMK AO2 SLP121 T02940222
KCRS 190453Z AUTO 16008KT 10SM CLR 29/22 A2992 RMK AO2 SLP125 T02890222
KCRS 190553Z AUTO 17008KT 10SM CLR 29/23 A2993 RMK AO2 SLP128 T02890228 10356 20283 403720256 51017



Page loaded:  06:02 UTC  |   11:02 PM Pacific  |   12:02 AM Mountain  |   01:02 AM Central  |   02:02 AM Eastern

 

ADVISORIES

FORECASTS

FORECASTS

OBSERVATIONS

USER TOOLS

ABOUT US